• Join FlightAware (Why Join?)
  • Login
  • US Flag 
08:27AM EDT


 

Airport Tracker/Info


-or-


 

Live Flight TrackerFlight Track Log ✈ RPA3161 ✈ 05-May-2013 ✈ KBTV - KDCA

Flight Track Log - Related Links

Times and Time Zones

All times are in EDT time to prevent confusion due to time zone crossing. See the RPA3161 flight status page for this flight to view local times or setup timezone preferences in your user account.

Time Position Orientation Groundspeed Altitude Reporting Facility
EDT Latitude Longitude Course Direction KTS MPH feet Rate Location/Type
12:49PM 44.0895 -73.2915 195° South  Level FlightAware Approximate
12:49PM 44.2567 -73.2111 198° South 297 342 9,600  Level Boston Center
12:50PM 43.9942 -73.3242 194° South  Level FlightAware Approximate
12:50PM 44.1647 -73.2475 196° South 307 353 12,200  Level Boston Center
12:51PM 43.8990 -73.3567 195° South  Level FlightAware Approximate
12:51PM 44.0769 -73.2839 197° South 325 374 14,600  Level Boston Center
12:52PM 43.8043 -73.3923 195° South  Level FlightAware Approximate
12:52PM 43.9828 -73.3200 195° South 345 397 17,100  Level Boston Center
12:53PM 43.7096 -73.4277 195° South  Level FlightAware Approximate
12:53PM 43.8847 -73.3503 193° South 363 418 19,100  Level Boston Center
12:54PM 43.6155 -73.4657 198° South  Level FlightAware Approximate
12:54PM 43.7847 -73.3603 184° South 363 418 21,200  Level Boston Center
12:55PM 43.6742 -73.3700 184° South 383 441 23,000 1,620 Climbing Boston Center
12:56PM 43.5761 -73.3772 183° South 389 448 24,500 1,500 Climbing Boston Center
12:57PM 43.4614 -73.3897 185° South 408 470 26,000 1,380 Climbing Boston Center
12:58PM 43.3406 -73.3992 183° South 418 481 27,300 1,320 Climbing Boston Center
12:59PM 43.2194 -73.4086 183° South 430 495 28,700 1,200 Climbing Boston Center
01:00PM 43.0778 -73.4236 184° South 459 528 29,800 1,020 Climbing Boston Center
01:01PM 42.9503 -73.4358 184° South 464 534 30,800 1,080 Climbing Boston Center
01:02PM 42.8356 -73.4481 184° South 457 526 32,000 600 Climbing Boston Center
01:03PM 42.7106 -73.4631 185° South 457 526 32,000  Level Boston Center
01:04PM 42.5811 -73.4719 183° South 463 533 32,000  Level Boston Center
01:05PM 42.4519 -73.4842 184° South 463 533 32,000  Level Boston Center
01:06PM 42.3247 -73.4875 181° South 463 533 32,000  Level Boston Center
01:07PM 42.1953 -73.4994 184° South 463 533 32,000  Level Boston Center
01:08PM 42.0661 -73.5111 184° South 463 533 32,000  Level Boston Center
01:09PM 41.9325 -73.5283 185° South 470 541 32,000 -60 Level Boston Center
01:10PM 41.8011 -73.5400 184° South 475 547 31,900 -720 Descending Boston Center
01:12PM 41.5578 -73.5575 183° South 477 549 30,000 -660 Descending New York Center
01:13PM 41.4475 -73.6442 211° Southwest 445 512 30,000  Level New York Center
01:14PM 41.3531 -73.7506 220° Southwest 450 518 30,000  Level New York Center
01:15PM 41.2586 -73.8622 222° Southwest 450 518 30,000  Level New York Center
01:16PM 41.1639 -73.9736 222° Southwest 455 524 30,000  Level New York Center
01:17PM 41.0650 -74.0900 222° Southwest 460 529 30,000  Level New York Center
01:18PM 40.9894 -74.1797 222° Southwest 465 535 30,000 -540 Level New York Center
01:19PM 40.8797 -74.2978 219° Southwest 470 541 29,000 -1,020 Descending New York Center
01:20PM 40.7889 -74.4081 223° Southwest 464 534 28,000 -540 Descending New York Center
01:21PM 40.7122 -74.5328 231° Southwest 452 520 28,000  Level New York Center
01:22PM 40.6353 -74.6569 231° Southwest 447 514 28,000  Level New York Center
01:23PM 40.5536 -74.7861 230° Southwest 453 521 28,000  Level New York Center
01:24PM 40.4642 -74.9092 226° Southwest 464 534 28,000  Level New York Center
01:25PM 40.3783 -75.0322 228° Southwest 464 534 28,000  Level New York Center
01:26PM 40.2925 -75.1547 227° Southwest 464 534 28,000 -840 Level New York Center
01:27PM 40.2047 -75.2769 227° Southwest 464 534 26,400 -2,040 Descending New York Center
01:28PM 40.1231 -75.3911 227° Southwest 457 526 24,100 -2,220 Descending New York Center
01:29PM 40.0436 -75.5025 227° Southwest 443 510 22,000 -1,080 Descending New York Center
01:30PM 39.9686 -75.6056 226° Southwest 418 481 22,000  Level New York Center
01:31PM 39.8950 -75.7197 230° Southwest 406 467 22,000  Level New York Center
01:32PM 39.8317 -75.8394 235° Southwest 411 473 22,000 -180 Level New York Center
01:33PM 39.7719 -75.9622 238° Southwest 411 473 21,700 -1,260 Descending New York Center
01:34PM 39.7061 -76.0814 234° Southwest 411 473 19,500 -2,280 Descending New York Center
01:36PM 39.6167 -76.2667 238° Southwest 365 420 16,000 -2,220 Descending Potomac TRACON
01:37PM 39.5333 -76.3500 218° Southwest 348 400 14,000 -1,980 Descending Potomac TRACON
01:38PM 39.4500 -76.4167 212° Southwest 338 389 12,100 -1,020 Descending Potomac TRACON
01:39PM 39.3833 -76.4833 218° Southwest 334 384 12,000 -540 Descending Potomac TRACON
01:39PM 39.3167 -76.5500 218° Southwest 332 382 11,100 -1,080 Descending Potomac TRACON
01:40PM 39.2333 -76.6000 205° Southwest 327 376 10,000 -600 Descending Potomac TRACON
01:41PM 39.1667 -76.6667 218° Southwest 290 334 10,000  Level Potomac TRACON
01:42PM 39.1167 -76.7333 226° Southwest 295 339 10,000 -120 Level Potomac TRACON
01:43PM 39.0667 -76.8000 226° Southwest 289 333 9,800 -1,080 Descending Potomac TRACON
01:44PM 39.0000 -76.8667 218° Southwest 287 330 8,000 -1,440 Descending Potomac TRACON
01:45PM 38.9333 -76.9333 218° Southwest 256 295 7,000 -900 Descending Potomac TRACON
01:46PM 38.8833 -76.9500 195° South 207 238 6,300 -960 Descending Potomac TRACON
01:47PM 38.8333 -76.9500 180° South 190 219 5,200 -1,200 Descending Potomac TRACON
01:48PM 38.7833 -76.9500 180° South 182 209 4,000 -600 Descending Potomac TRACON
01:49PM 38.7333 -76.9333 165° South 177 204 4,000 -60 Level Potomac TRACON
01:50PM 38.7000 -76.9500 201° Southwest 188 216 3,900 -660 Descending Potomac TRACON
01:51PM 38.7000 -77.0167 270° West 202 232 2,800 -900 Descending Potomac TRACON
01:52PM 38.7333 -77.0333 339° North 174 200 2,100 -840 Descending Potomac TRACON
01:53PM 38.7833 -77.0333 360° North 171 197 1,200 -900 Descending Potomac TRACON
01:54PM 38.8333 -77.0333 360° North 138 159 400 -840 Descending Potomac TRACON